Time;durP1;ratioP1;P1;durP2;ratioP2;P2;SDS_P1;SDS_P2;PMS_P1;PMS_P2;Temp;Humidity;BMP_temperature;BMP_pressure;BME280_temperature;BME280_humidity;BME280_pressure;Samples;Min_cycle;Max_cycle;Signal;HPM_P1;HPM_P2
2022/12/18 00:00:40;;;;;;;;;;;-2.20;92.00;;;;;;5085318;28;19912;-71
2022/12/18 00:03:06;;;;;;;;;;;-2.20;92.00;;;;;;5090829;28;20413;-71
2022/12/18 00:05:31;;;;;;;;;;;-2.20;92.00;;;;;;5090205;28;20014;-71
2022/12/18 00:07:57;;;;;;;;;;;-2.20;92.00;;;;;;5091912;28;19920;-71
2022/12/18 00:10:22;;;;;;;;;;;-2.20;92.00;;;;;;5090588;28;20057;-71
2022/12/18 00:12:48;;;;;;;;;;;-2.20;92.30;;;;;;5090315;28;19916;-72
2022/12/18 00:15:13;;;;;;;;;;;-2.20;92.00;;;;;;5089931;28;19919;-71
2022/12/18 00:17:39;;;;;;;;;;;-2.20;92.10;;;;;;5069880;28;19908;-72
2022/12/18 00:20:04;;;;;;;;;;;-2.20;92.00;;;;;;5068876;28;19916;-71
2022/12/18 00:22:30;;;;;;;;;;;-2.20;92.00;;;;;;5073534;28;19916;-71
2022/12/18 00:24:55;;;;;;;;;;;-2.20;92.00;;;;;;5083157;28;20481;-71
2022/12/18 00:27:21;;;;;;;;;;;-2.20;92.00;;;;;;5087847;28;19912;-71
2022/12/18 00:29:47;;;;;;;;;;;-2.20;92.00;;;;;;5088944;28;20724;-71
2022/12/18 00:32:13;;;;;;;;;;;-2.20;92.00;;;;;;5070543;28;20522;-71
2022/12/18 00:34:38;;;;;;;;;;;-2.20;92.00;;;;;;5088665;28;19919;-71
2022/12/18 00:37:04;;;;;;;;;;;-2.20;92.00;;;;;;5089768;28;19912;-71
2022/12/18 00:39:29;;;;;;;;;;;-2.20;92.00;;;;;;5089170;28;19916;-71
2022/12/18 00:44:39;;;;;;;;;;;-2.20;92.00;;;;;;5095560;28;19923;-71
2022/12/18 00:47:05;;;;;;;;;;;-2.20;92.00;;;;;;5089775;28;19908;-71
2022/12/18 00:49:30;;;;;;;;;;;-2.20;92.00;;;;;;5088876;28;20454;-72
2022/12/18 00:51:55;;;;;;;;;;;-2.20;92.00;;;;;;5088942;28;19912;-71
2022/12/18 00:54:21;;;;;;;;;;;-2.20;92.00;;;;;;5089670;28;19919;-71
2022/12/18 00:56:46;;;;;;;;;;;-2.20;92.00;;;;;;5085101;28;20576;-71
2022/12/18 00:59:12;;;;;;;;;;;-2.20;92.00;;;;;;5091341;28;19916;-71
2022/12/18 01:01:37;;;;;;;;;;;-2.20;92.00;;;;;;5110324;28;19923;-71
2022/12/18 01:04:03;;;;;;;;;;;-2.20;92.00;;;;;;5109380;28;20296;-71
2022/12/18 01:06:29;;;;;;;;;;;-2.20;92.00;;;;;;5109710;28;19919;-71
2022/12/18 01:08:54;;;;;;;;;;;-2.20;92.00;;;;;;5108825;28;19911;-71
2022/12/18 01:11:20;;;;;;;;;;;-2.20;92.00;;;;;;5109240;28;20120;-72
2022/12/18 01:13:46;;;;;;;;;;;-2.20;92.00;;;;;;5102512;28;19920;-71
2022/12/18 01:16:12;;;;;;;;;;;-2.20;92.00;;;;;;5094896;28;19923;-72
2022/12/18 01:18:38;;;;;;;;;;;-2.30;91.90;;;;;;5089249;28;20730;-71
2022/12/18 01:21:11;;;;;;;;;;;-2.30;92.00;;;;;;5088887;28;19912;-72
2022/12/18 01:23:37;;;;;;;;;;;-2.20;92.00;;;;;;5088862;28;19912;-71
2022/12/18 01:26:11;;;;;;;;;;;-2.20;92.00;;;;;;5070577;28;20600;-71
2022/12/18 01:28:39;;;;;;;;;;;-2.20;92.00;;;;;;5080335;28;19952;-71
2022/12/18 01:31:11;;;;;;;;;;;-2.20;92.00;;;;;;5090890;28;19922;-71
2022/12/18 01:33:37;;;;;;;;;;;-2.20;92.00;;;;;;5109020;28;19957;-71
2022/12/18 01:36:02;;;;;;;;;;;-2.20;91.90;;;;;;5108717;28;19920;-71
2022/12/18 01:38:28;;;;;;;;;;;-2.20;91.90;;;;;;5109052;28;19911;-71
2022/12/18 01:40:57;;;;;;;;;;;-2.20;91.80;;;;;;5108868;28;19958;-71
2022/12/18 01:43:40;;;;;;;;;;;-2.20;91.80;;;;;;5103555;28;19912;-71
2022/12/18 01:46:05;;;;;;;;;;;-2.20;91.80;;;;;;5088572;28;19916;-71
2022/12/18 01:48:31;;;;;;;;;;;-2.20;91.80;;;;;;5088448;28;19919;-71
2022/12/18 01:50:56;;;;;;;;;;;-2.30;91.80;;;;;;5087540;28;19912;-71
2022/12/18 01:53:23;;;;;;;;;;;-2.20;91.80;;;;;;5088252;28;20352;-71
2022/12/18 01:55:51;;;;;;;;;;;-2.30;91.80;;;;;;5093004;28;19915;-72
2022/12/18 01:58:17;;;;;;;;;;;-2.30;91.80;;;;;;5091575;28;19919;-71
2022/12/18 02:00:42;;;;;;;;;;;-2.30;91.80;;;;;;5086935;28;19908;-71
2022/12/18 02:03:08;;;;;;;;;;;-2.30;91.80;;;;;;5088164;28;19912;-71
2022/12/18 02:05:52;;;;;;;;;;;-2.30;91.80;;;;;;5088227;28;19916;-71
2022/12/18 02:08:25;;;;;;;;;;;-2.20;91.80;;;;;;5087626;28;19919;-71
2022/12/18 02:11:30;;;;;;;;;;;-2.30;91.80;;;;;;5088029;28;19919;-71
2022/12/18 02:14:01;;;;;;;;;;;-2.30;91.80;;;;;;5003513;28;20026;-71
2022/12/18 02:16:26;;;;;;;;;;;-2.30;91.80;;;;;;5005212;28;19913;-71
2022/12/18 02:18:55;;;;;;;;;;;-2.30;91.80;;;;;;5045963;28;19912;-71
2022/12/18 02:21:35;;;;;;;;;;;-2.30;91.90;;;;;;5069317;28;19907;-71
2022/12/18 02:24:19;;;;;;;;;;;-2.30;91.90;;;;;;5097084;28;20376;-71
2022/12/18 02:26:53;;;;;;;;;;;-2.30;91.90;;;;;;5103369;28;20254;-71
2022/12/18 02:29:45;;;;;;;;;;;-2.30;91.90;;;;;;5085646;28;19908;-71
2022/12/18 02:32:13;;;;;;;;;;;-2.30;91.90;;;;;;5083695;28;19920;-72
2022/12/18 02:34:40;;;;;;;;;;;-2.30;91.90;;;;;;5088003;28;19979;-71
2022/12/18 02:37:07;;;;;;;;;;;-2.30;91.90;;;;;;5089055;28;20349;-71
2022/12/18 02:39:34;;;;;;;;;;;-2.30;91.90;;;;;;5107491;28;19918;-71
2022/12/18 02:42:01;;;;;;;;;;;-2.30;91.90;;;;;;5107862;28;19950;-71
2022/12/18 02:44:26;;;;;;;;;;;-2.30;91.90;;;;;;5094025;28;19916;-71
2022/12/18 02:46:53;;;;;;;;;;;-2.30;91.90;;;;;;5087211;28;19912;-71
2022/12/18 02:49:37;;;;;;;;;;;-2.30;91.90;;;;;;5086949;28;20568;-71
2022/12/18 02:52:18;;;;;;;;;;;-2.30;91.90;;;;;;5087116;28;19912;-71
2022/12/18 02:54:49;;;;;;;;;;;-2.30;91.90;;;;;;5097483;28;19916;-71
2022/12/18 02:57:33;;;;;;;;;;;-2.30;91.90;;;;;;5099471;28;19919;-72
2022/12/18 03:00:04;;;;;;;;;;;-2.30;91.90;;;;;;5087170;28;20003;-71
2022/12/18 03:02:46;;;;;;;;;;;-2.30;91.90;;;;;;5087070;28;19955;-71
2022/12/18 03:05:11;;;;;;;;;;;-2.30;91.90;;;;;;5087115;28;19916;-71
2022/12/18 03:07:39;;;;;;;;;;;-2.30;91.90;;;;;;5087457;28;19912;-71
2022/12/18 03:10:06;;;;;;;;;;;-2.30;92.00;;;;;;5087789;28;19923;-71
2022/12/18 03:12:36;;;;;;;;;;;-2.30;92.00;;;;;;5105305;28;20623;-71
2022/12/18 03:15:04;;;;;;;;;;;-2.30;92.00;;;;;;5089833;28;20386;-71
2022/12/18 03:17:31;;;;;;;;;;;-2.30;91.90;;;;;;5086852;28;20701;-71
2022/12/18 03:19:58;;;;;;;;;;;-2.30;91.90;;;;;;5086249;28;19959;-71
2022/12/18 03:22:24;;;;;;;;;;;-2.30;91.90;;;;;;5086494;28;19919;-71
2022/12/18 03:24:50;;;;;;;;;;;-2.30;91.90;;;;;;5086774;28;19916;-71
2022/12/18 03:27:18;;;;;;;;;;;-2.20;91.90;;;;;;5088118;28;19916;-71
2022/12/18 03:29:45;;;;;;;;;;;-2.20;91.90;;;;;;5086139;28;20341;-71
2022/12/18 03:32:14;;;;;;;;;;;-2.30;91.90;;;;;;5074796;28;19919;-71
2022/12/18 03:34:42;;;;;;;;;;;-2.30;92.20;;;;;;5066279;28;19986;-71
2022/12/18 03:37:07;;;;;;;;;;;-2.30;92.00;;;;;;5066848;28;19923;-71
2022/12/18 03:39:34;;;;;;;;;;;-2.30;91.90;;;;;;5065839;28;20285;-71
2022/12/18 03:42:05;;;;;;;;;;;-2.30;92.00;;;;;;5066536;28;19915;-71
2022/12/18 03:44:33;;;;;;;;;;;-2.30;91.90;;;;;;5079392;28;19916;-71
2022/12/18 03:47:05;;;;;;;;;;;-2.30;91.90;;;;;;5086728;28;19919;-71
2022/12/18 03:49:43;;;;;;;;;;;-2.30;92.00;;;;;;5086428;28;19935;-71
2022/12/18 03:52:24;;;;;;;;;;;-2.30;91.90;;;;;;5068762;28;20384;-71
2022/12/18 03:54:50;;;;;;;;;;;-2.30;91.90;;;;;;5086393;28;19938;-71
2022/12/18 03:57:20;;;;;;;;;;;-2.30;92.00;;;;;;5078364;28;19920;-71
2022/12/18 03:59:46;;;;;;;;;;;-2.30;91.90;;;;;;5074405;28;19916;-71
2022/12/18 04:02:13;;;;;;;;;;;-2.30;91.90;;;;;;5067754;28;19947;-71
2022/12/18 04:04:39;;;;;;;;;;;-2.30;91.90;;;;;;5085840;28;19923;-71
2022/12/18 04:07:05;;;;;;;;;;;-2.30;91.90;;;;;;5084961;28;20710;-71
2022/12/18 04:09:32;;;;;;;;;;;-2.30;91.90;;;;;;5085824;28;19929;-71
2022/12/18 04:11:57;;;;;;;;;;;-2.30;91.90;;;;;;5086552;28;20011;-71
2022/12/18 04:14:23;;;;;;;;;;;-2.30;91.90;;;;;;5087026;28;20642;-71
2022/12/18 04:16:48;;;;;;;;;;;-2.30;91.90;;;;;;5094305;28;19916;-71
2022/12/18 04:19:14;;;;;;;;;;;-2.30;91.90;;;;;;5088465;28;20288;-71
2022/12/18 04:21:39;;;;;;;;;;;-2.30;91.90;;;;;;5106679;28;19914;-71
2022/12/18 04:24:05;;;;;;;;;;;-2.30;91.90;;;;;;5108127;28;19994;-71
2022/12/18 04:26:30;;;;;;;;;;;-2.30;92.00;;;;;;5108113;28;20517;-71
2022/12/18 04:28:56;;;;;;;;;;;-2.30;92.00;;;;;;5087542;28;19918;-71
2022/12/18 04:31:21;;;;;;;;;;;-2.30;92.00;;;;;;5082492;28;19916;-71
2022/12/18 04:33:47;;;;;;;;;;;-2.30;91.90;;;;;;5082584;28;19923;-71
2022/12/18 04:36:12;;;;;;;;;;;-2.30;91.90;;;;;;5076612;28;19916;-73
2022/12/18 04:38:38;;;;;;;;;;;-2.30;92.00;;;;;;5089193;28;19916;-71
2022/12/18 04:41:03;;;;;;;;;;;-2.30;91.90;;;;;;5089472;28;19912;-71
2022/12/18 04:43:29;;;;;;;;;;;-2.30;91.90;;;;;;5071832;28;19969;-71
2022/12/18 04:46:01;;;;;;;;;;;-2.30;91.90;;;;;;5084225;28;19920;-71
2022/12/18 04:48:26;;;;;;;;;;;-2.30;91.90;;;;;;5069563;28;19999;-72
2022/12/18 04:50:52;;;;;;;;;;;-2.30;91.90;;;;;;5103291;28;20010;-71
2022/12/18 04:53:17;;;;;;;;;;;-2.30;91.90;;;;;;5099900;28;19917;-71
2022/12/18 04:55:43;;;;;;;;;;;-2.30;91.90;;;;;;5089218;28;19912;-71
2022/12/18 04:58:08;;;;;;;;;;;-2.30;91.90;;;;;;5073555;28;19966;-72
2022/12/18 05:00:34;;;;;;;;;;;-2.30;92.00;;;;;;5082006;28;20493;-71
2022/12/18 05:03:00;;;;;;;;;;;-2.30;91.90;;;;;;5089247;28;20325;-71
2022/12/18 05:05:26;;;;;;;;;;;-2.30;92.00;;;;;;5089349;28;19912;-71
2022/12/18 05:07:51;;;;;;;;;;;-2.30;92.00;;;;;;5108808;28;19922;-72
2022/12/18 05:10:17;;;;;;;;;;;-2.30;91.90;;;;;;5090623;28;20120;-71
2022/12/18 05:13:01;;;;;;;;;;;-2.30;91.90;;;;;;5109083;28;19996;-71
2022/12/18 05:15:29;;;;;;;;;;;-2.30;91.80;;;;;;5069359;28;21760;-72
2022/12/18 05:17:55;;;;;;;;;;;-2.30;91.90;;;;;;5070777;28;20010;-72
2022/12/18 05:20:20;;;;;;;;;;;-2.30;91.90;;;;;;5088090;28;20015;-72
2022/12/18 05:22:46;;;;;;;;;;;-2.30;91.90;;;;;;5099780;28;20555;-71
2022/12/18 05:25:11;;;;;;;;;;;-2.30;91.90;;;;;;5088972;28;20449;-71
2022/12/18 05:27:37;;;;;;;;;;;-2.30;91.90;;;;;;5095191;28;19912;-71
2022/12/18 05:30:02;;;;;;;;;;;-2.30;91.80;;;;;;5086795;28;19915;-71
2022/12/18 05:32:28;;;;;;;;;;;-2.30;91.80;;;;;;5088079;28;19916;-71
2022/12/18 05:34:53;;;;;;;;;;;-2.30;91.80;;;;;;5078890;28;19999;-71
2022/12/18 05:37:19;;;;;;;;;;;-2.30;91.90;;;;;;5068144;28;20305;-72
2022/12/18 05:39:44;;;;;;;;;;;-2.30;91.90;;;;;;5102370;28;20582;-71
2022/12/18 05:42:10;;;;;;;;;;;-2.30;91.80;;;;;;5108019;28;19911;-71
2022/12/18 05:44:35;;;;;;;;;;;-2.30;91.80;;;;;;5076230;28;19916;-71
2022/12/18 05:47:01;;;;;;;;;;;-2.30;91.80;;;;;;5088239;28;20368;-72
2022/12/18 05:49:26;;;;;;;;;;;-2.30;91.80;;;;;;5087646;28;19912;-71
2022/12/18 05:51:52;;;;;;;;;;;-2.40;91.80;;;;;;5088118;28;19994;-71
2022/12/18 05:54:17;;;;;;;;;;;-2.40;91.80;;;;;;5091481;28;20410;-71
2022/12/18 05:56:43;;;;;;;;;;;-2.40;91.80;;;;;;5104613;28;19991;-71
2022/12/18 05:59:08;;;;;;;;;;;-2.40;91.80;;;;;;5087307;28;20277;-71
2022/12/18 06:01:34;;;;;;;;;;;-2.40;91.80;;;;;;5087278;28;19908;-72
2022/12/18 06:03:59;;;;;;;;;;;-2.40;91.80;;;;;;5088209;28;19908;-71
2022/12/18 06:06:26;;;;;;;;;;;-2.40;91.80;;;;;;5069591;28;20592;-72
2022/12/18 06:08:52;;;;;;;;;;;-2.40;91.80;;;;;;5087887;28;19916;-71
2022/12/18 06:11:19;;;;;;;;;;;-2.40;91.70;;;;;;5098009;28;20403;-71
2022/12/18 06:13:44;;;;;;;;;;;-2.40;91.70;;;;;;5101282;28;19997;-72
2022/12/18 06:16:10;;;;;;;;;;;-2.40;91.70;;;;;;5087136;28;20349;-72
2022/12/18 06:18:35;;;;;;;;;;;-2.50;91.70;;;;;;5087676;28;20582;-71
2022/12/18 06:21:01;;;;;;;;;;;-2.50;91.70;;;;;;5087111;28;20019;-71
2022/12/18 06:23:27;;;;;;;;;;;-2.50;91.70;;;;;;5088054;28;19912;-75
2022/12/18 06:25:52;;;;;;;;;;;-2.50;91.70;;;;;;5087683;28;20004;-76
2022/12/18 06:28:18;;;;;;;;;;;-2.50;91.70;;;;;;5086911;28;19989;-76
2022/12/18 06:30:44;;;;;;;;;;;-2.50;91.60;;;;;;5089014;28;20045;-76
2022/12/18 06:33:09;;;;;;;;;;;-2.50;91.70;;;;;;5068270;28;19915;-76
2022/12/18 06:35:35;;;;;;;;;;;-2.50;91.60;;;;;;5086801;28;19908;-76
2022/12/18 06:38:01;;;;;;;;;;;-2.50;91.60;;;;;;5087051;28;19946;-76
2022/12/18 06:40:26;;;;;;;;;;;-2.50;91.70;;;;;;5086788;28;20487;-76
2022/12/18 06:42:52;;;;;;;;;;;-2.50;91.60;;;;;;5088023;28;20004;-76
2022/12/18 06:45:17;;;;;;;;;;;-2.60;91.60;;;;;;5087610;28;20359;-76
2022/12/18 06:47:43;;;;;;;;;;;-2.60;91.60;;;;;;5086843;28;19920;-76
2022/12/18 06:50:08;;;;;;;;;;;-2.60;91.60;;;;;;5086416;28;20005;-76
2022/12/18 06:52:34;;;;;;;;;;;-2.60;91.60;;;;;;5087123;28;20383;-76
2022/12/18 06:54:59;;;;;;;;;;;-2.60;91.60;;;;;;5087249;28;19908;-76
2022/12/18 06:57:25;;;;;;;;;;;-2.60;91.60;;;;;;5087249;28;19908;-77
2022/12/18 06:59:50;;;;;;;;;;;-2.60;91.60;;;;;;5087843;28;19923;-76
2022/12/18 07:02:16;;;;;;;;;;;-2.60;91.50;;;;;;5092069;28;19916;-76
2022/12/18 07:04:42;;;;;;;;;;;-2.60;91.50;;;;;;5107168;28;20403;-76
2022/12/18 07:07:07;;;;;;;;;;;-2.60;91.50;;;;;;5106863;28;19916;-76
2022/12/18 07:09:33;;;;;;;;;;;-2.60;91.50;;;;;;5107036;28;20072;-76
2022/12/18 07:11:58;;;;;;;;;;;-2.60;91.50;;;;;;5107446;28;20721;-77
2022/12/18 07:14:23;;;;;;;;;;;-2.70;91.40;;;;;;5094737;28;19919;-76
2022/12/18 07:16:49;;;;;;;;;;;-2.70;91.40;;;;;;5095618;28;19923;-76
2022/12/18 07:19:14;;;;;;;;;;;-2.70;91.40;;;;;;5089923;28;20349;-76
2022/12/18 07:21:40;;;;;;;;;;;-2.70;91.40;;;;;;5086759;28;19908;-76
2022/12/18 07:24:06;;;;;;;;;;;-2.70;91.40;;;;;;5085704;28;20648;-77
2022/12/18 07:26:31;;;;;;;;;;;-2.70;91.40;;;;;;5086570;28;19916;-76
2022/12/18 07:28:57;;;;;;;;;;;-2.70;91.30;;;;;;5086340;28;19912;-76
2022/12/18 07:31:23;;;;;;;;;;;-2.70;91.30;;;;;;5067447;28;19908;-76
2022/12/18 07:33:49;;;;;;;;;;;-2.70;91.20;;;;;;5087575;28;19930;-76
2022/12/18 07:36:15;;;;;;;;;;;-2.70;91.20;;;;;;5082943;28;19916;-76
2022/12/18 07:38:41;;;;;;;;;;;-2.80;91.20;;;;;;5086541;28;20363;-76
2022/12/18 07:41:06;;;;;;;;;;;-2.80;91.20;;;;;;5085865;28;19923;-76
2022/12/18 07:43:32;;;;;;;;;;;-2.80;91.10;;;;;;5086387;28;20377;-77
2022/12/18 07:45:57;;;;;;;;;;;-2.80;91.10;;;;;;5080552;28;19993;-76
2022/12/18 07:48:23;;;;;;;;;;;-2.80;91.00;;;;;;5066529;28;20274;-76
2022/12/18 07:50:48;;;;;;;;;;;-2.80;91.00;;;;;;5101951;28;20477;-76
2022/12/18 07:53:14;;;;;;;;;;;-2.80;91.00;;;;;;5107054;28;19908;-76
2022/12/18 07:55:41;;;;;;;;;;;-2.80;90.90;;;;;;5106689;28;20380;-76
2022/12/18 07:58:07;;;;;;;;;;;-2.80;90.90;;;;;;5090649;28;20375;-76
2022/12/18 08:00:32;;;;;;;;;;;-2.80;91.00;;;;;;5088786;28;20011;-76
2022/12/18 08:02:58;;;;;;;;;;;-2.80;90.90;;;;;;5089917;28;19916;-76
2022/12/18 08:05:23;;;;;;;;;;;-2.80;90.90;;;;;;5090289;28;19920;-76
2022/12/18 08:07:49;;;;;;;;;;;-2.80;90.90;;;;;;5110658;28;19912;-76
2022/12/18 08:10:15;;;;;;;;;;;-2.80;90.90;;;;;;5110496;28;20016;-76
2022/12/18 08:12:40;;;;;;;;;;;-2.80;90.90;;;;;;5110503;28;19916;-76
2022/12/18 08:15:06;;;;;;;;;;;-2.80;90.80;;;;;;5091427;28;19912;-76
2022/12/18 08:17:32;;;;;;;;;;;-2.80;90.80;;;;;;5083843;28;20007;-76
2022/12/18 08:19:58;;;;;;;;;;;-2.80;90.80;;;;;;5106454;28;20010;-76
2022/12/18 08:22:23;;;;;;;;;;;-2.80;90.80;;;;;;5110632;28;19920;-76
2022/12/18 08:24:49;;;;;;;;;;;-2.80;90.80;;;;;;5110290;28;19919;-76
2022/12/18 08:27:14;;;;;;;;;;;-2.70;90.80;;;;;;5101799;28;20454;-76
2022/12/18 08:29:40;;;;;;;;;;;-2.80;90.80;;;;;;5089208;28;20517;-76
2022/12/18 08:32:05;;;;;;;;;;;-2.70;90.80;;;;;;5089384;28;19908;-76
2022/12/18 08:34:31;;;;;;;;;;;-2.70;90.80;;;;;;5071320;28;20386;-76
2022/12/18 08:36:56;;;;;;;;;;;-2.70;90.80;;;;;;5090521;28;19998;-76
2022/12/18 08:39:21;;;;;;;;;;;-2.70;90.70;;;;;;5070833;28;19924;-76
2022/12/18 08:44:37;;;;;;;;;;;-2.60;90.70;;;;;;5089571;28;20004;-76
2022/12/18 08:44:38;;;;;;;;;;;-2.60;90.70;;;;;;5088281;28;20427;-76
2022/12/18 08:47:05;;;;;;;;;;;-2.60;90.70;;;;;;5086796;28;19999;-76
2022/12/18 08:49:30;;;;;;;;;;;-2.60;90.70;;;;;;5088203;28;19912;-76
2022/12/18 08:51:59;;;;;;;;;;;-2.60;90.70;;;;;;5089164;28;19916;-76
2022/12/18 08:54:25;;;;;;;;;;;-2.60;90.70;;;;;;5092755;28;19919;-76
2022/12/18 08:56:51;;;;;;;;;;;-2.60;90.60;;;;;;5084705;28;19956;-76
2022/12/18 08:59:16;;;;;;;;;;;-2.50;90.70;;;;;;5071655;28;20506;-76
2022/12/18 09:01:42;;;;;;;;;;;-2.60;90.60;;;;;;5089083;28;19958;-76
2022/12/18 09:04:08;;;;;;;;;;;-2.50;90.70;;;;;;5089109;28;20038;-76
2022/12/18 09:06:34;;;;;;;;;;;-2.50;90.70;;;;;;5088566;28;20010;-76
2022/12/18 09:08:59;;;;;;;;;;;-2.50;90.60;;;;;;5103014;28;19987;-76
2022/12/18 09:11:26;;;;;;;;;;;-2.50;90.70;;;;;;5088969;28;20003;-76
2022/12/18 09:13:53;;;;;;;;;;;-2.50;90.80;;;;;;5087465;28;20369;-76
2022/12/18 09:16:19;;;;;;;;;;;-2.50;90.80;;;;;;5080176;28;19919;-76
2022/12/18 09:18:45;;;;;;;;;;;-2.50;90.90;;;;;;5067626;28;19912;-76
2022/12/18 09:21:12;;;;;;;;;;;-2.50;90.90;;;;;;5067017;28;19912;-76
2022/12/18 09:23:37;;;;;;;;;;;-2.60;91.00;;;;;;5067743;28;19982;-76
2022/12/18 09:26:03;;;;;;;;;;;-2.50;91.00;;;;;;5086875;28;19923;-76
2022/12/18 09:28:29;;;;;;;;;;;-2.50;91.00;;;;;;5079275;28;19920;-76
2022/12/18 09:30:54;;;;;;;;;;;-2.50;91.00;;;;;;5087132;28;20007;-76
2022/12/18 09:33:20;;;;;;;;;;;-2.40;91.00;;;;;;5087684;28;19944;-75
2022/12/18 09:35:46;;;;;;;;;;;-2.40;91.00;;;;;;5087490;28;19912;-75
2022/12/18 09:38:13;;;;;;;;;;;-2.40;91.10;;;;;;5087167;28;20418;-75
2022/12/18 09:40:42;;;;;;;;;;;-2.40;91.10;;;;;;5087153;28;19924;-75
2022/12/18 09:43:12;;;;;;;;;;;-2.30;91.20;;;;;;5103457;28;19912;-75
2022/12/18 09:45:40;;;;;;;;;;;-2.30;91.10;;;;;;5086701;28;19955;-75
2022/12/18 09:48:09;;;;;;;;;;;-2.20;91.10;;;;;;5087659;28;19912;-75
2022/12/18 09:50:37;;;;;;;;;;;-2.20;91.10;;;;;;5068480;28;19927;-76
2022/12/18 09:53:06;;;;;;;;;;;-2.10;91.00;;;;;;5086498;28;20460;-75
2022/12/18 09:55:37;;;;;;;;;;;-2.10;91.00;;;;;;5099722;28;19916;-75
2022/12/18 09:58:07;;;;;;;;;;;-2.00;90.90;;;;;;5075941;28;19916;-75
2022/12/18 10:00:33;;;;;;;;;;;-2.00;91.00;;;;;;5090483;28;19995;-75
2022/12/18 10:03:16;;;;;;;;;;;-1.90;90.90;;;;;;5086880;28;20007;-75
2022/12/18 10:05:57;;;;;;;;;;;-1.90;91.00;;;;;;5086448;28;19916;-75
2022/12/18 10:08:34;;;;;;;;;;;-1.90;91.10;;;;;;5084424;28;19920;-75
2022/12/18 10:11:03;;;;;;;;;;;-1.90;91.00;;;;;;5066680;28;19919;-75
2022/12/18 10:13:40;;;;;;;;;;;-1.80;90.80;;;;;;5085554;28;19920;-75
2022/12/18 10:16:06;;;;;;;;;;;-1.70;90.80;;;;;;5075425;28;19920;-74
2022/12/18 10:18:37;;;;;;;;;;;-1.70;90.90;;;;;;5087784;28;19912;-75
2022/12/18 10:21:12;;;;;;;;;;;-1.60;90.80;;;;;;5085868;28;19919;-74
2022/12/18 10:23:37;;;;;;;;;;;-1.60;90.80;;;;;;5077676;28;19922;-74
2022/12/18 10:26:04;;;;;;;;;;;-1.60;90.70;;;;;;5099407;28;19923;-74
2022/12/18 10:28:31;;;;;;;;;;;-1.60;90.70;;;;;;5073994;28;19912;-74
2022/12/18 10:30:56;;;;;;;;;;;-1.50;90.70;;;;;;5081829;28;20527;-74
2022/12/18 10:33:23;;;;;;;;;;;-1.40;90.80;;;;;;5081871;28;20022;-75
2022/12/18 10:35:52;;;;;;;;;;;-1.40;90.80;;;;;;5068556;28;20575;-73
2022/12/18 10:38:17;;;;;;;;;;;-1.40;91.10;;;;;;5075870;28;19920;-74
2022/12/18 10:40:52;;;;;;;;;;;-1.30;90.80;;;;;;5087193;28;20292;-74
2022/12/18 10:43:22;;;;;;;;;;;-1.30;90.70;;;;;;5093650;28;19920;-74
2022/12/18 10:45:57;;;;;;;;;;;-1.20;90.70;;;;;;5083178;28;20361;-74
2022/12/18 10:48:23;;;;;;;;;;;-1.20;90.80;;;;;;5084538;28;20429;-74
2022/12/18 10:50:50;;;;;;;;;;;-1.10;90.70;;;;;;5082153;28;19985;-74
2022/12/18 10:53:19;;;;;;;;;;;-1.10;90.70;;;;;;5070393;28;19912;-74
2022/12/18 10:55:45;;;;;;;;;;;-1.10;90.70;;;;;;5086814;28;19915;-74
2022/12/18 10:58:23;;;;;;;;;;;-1.10;90.70;;;;;;5070738;28;19913;-74
2022/12/18 11:01:07;;;;;;;;;;;-1.00;90.70;;;;;;5074830;28;19919;-74
2022/12/18 11:03:43;;;;;;;;;;;-1.00;90.60;;;;;;5087154;28;20361;-74
2022/12/18 11:06:12;;;;;;;;;;;-0.90;90.60;;;;;;5087094;28;19988;-74
2022/12/18 11:08:38;;;;;;;;;;;-0.90;90.60;;;;;;5085970;28;19927;-73
2022/12/18 11:11:06;;;;;;;;;;;-0.90;90.60;;;;;;5086573;28;19912;-74
2022/12/18 11:13:32;;;;;;;;;;;-0.80;90.60;;;;;;5086721;28;19973;-73
2022/12/18 11:15:58;;;;;;;;;;;-0.80;90.60;;;;;;5081654;28;19921;-74
2022/12/18 11:18:33;;;;;;;;;;;-0.70;90.60;;;;;;5067103;28;19935;-73
2022/12/18 11:21:01;;;;;;;;;;;-0.80;90.70;;;;;;5066335;28;20376;-74
2022/12/18 11:23:27;;;;;;;;;;;-0.70;90.70;;;;;;5069129;28;19952;-74
2022/12/18 11:25:56;;;;;;;;;;;-0.70;90.70;;;;;;5088119;28;19978;-74
2022/12/18 11:28:37;;;;;;;;;;;-0.60;90.70;;;;;;5088948;28;20007;-74
2022/12/18 11:31:12;;;;;;;;;;;-0.60;90.70;;;;;;5086106;28;20006;-74
2022/12/18 11:33:39;;;;;;;;;;;-0.50;90.80;;;;;;5088140;28;20285;-74
2022/12/18 11:36:07;;;;;;;;;;;-0.50;90.80;;;;;;5089640;28;19912;-74
2022/12/18 11:38:36;;;;;;;;;;;-0.50;90.70;;;;;;5090901;28;19914;-73
2022/12/18 11:41:11;;;;;;;;;;;-0.50;90.70;;;;;;5090808;28;20006;-73
2022/12/18 11:43:49;;;;;;;;;;;-0.40;90.80;;;;;;5090674;28;20426;-73
2022/12/18 11:46:22;;;;;;;;;;;-0.40;90.70;;;;;;5082268;28;19924;-74
2022/12/18 11:48:51;;;;;;;;;;;-0.40;90.60;;;;;;5070491;28;19912;-73
2022/12/18 11:51:28;;;;;;;;;;;-0.30;90.70;;;;;;5069424;28;19934;-73
2022/12/18 11:53:53;;;;;;;;;;;-0.30;90.70;;;;;;5070470;28;20357;-73
2022/12/18 11:56:31;;;;;;;;;;;-0.30;90.70;;;;;;5079211;28;19912;-74
2022/12/18 11:59:00;;;;;;;;;;;-0.30;90.70;;;;;;5090364;28;19985;-73
2022/12/18 12:01:43;;;;;;;;;;;-0.20;90.70;;;;;;5089971;28;19912;-73
2022/12/18 12:04:17;;;;;;;;;;;-0.20;90.80;;;;;;5090188;28;19912;-74
2022/12/18 12:06:43;;;;;;;;;;;-0.20;90.70;;;;;;5090193;28;19923;-73
2022/12/18 12:09:29;;;;;;;;;;;-0.10;90.60;;;;;;5089771;28;19912;-73
2022/12/18 12:12:05;;;;;;;;;;;-0.10;90.60;;;;;;5061207;28;19918;-73
2022/12/18 12:14:43;;;;;;;;;;;-0.10;90.70;;;;;;5090170;28;19920;-73
2022/12/18 12:17:21;;;;;;;;;;;-0.10;90.60;;;;;;5074332;28;19951;-73
2022/12/18 12:20:08;;;;;;;;;;;-0.10;90.60;;;;;;5069585;28;20805;-73
2022/12/18 12:22:39;;;;;;;;;;;0.00;90.60;;;;;;5069485;28;20300;-73
2022/12/18 12:25:20;;;;;;;;;;;0.00;90.70;;;;;;5069638;28;19919;-73
2022/12/18 12:28:05;;;;;;;;;;;0.00;90.60;;;;;;5073812;28;19977;-73
2022/12/18 12:30:43;;;;;;;;;;;0.00;90.70;;;;;;5053388;28;19916;-74
2022/12/18 12:33:27;;;;;;;;;;;0.10;90.70;;;;;;5089307;28;19913;-73
2022/12/18 12:35:59;;;;;;;;;;;0.10;90.60;;;;;;5089888;28;19954;-73
2022/12/18 12:38:27;;;;;;;;;;;0.10;90.80;;;;;;5071313;28;19915;-73
2022/12/18 12:41:01;;;;;;;;;;;0.10;90.70;;;;;;5089145;28;19981;-73
2022/12/18 12:43:40;;;;;;;;;;;0.10;90.70;;;;;;5089771;28;19918;-73
2022/12/18 12:46:10;;;;;;;;;;;0.10;90.70;;;;;;5089830;28;19985;-73
2022/12/18 12:48:40;;;;;;;;;;;0.20;90.70;;;;;;5089651;28;19915;-73
2022/12/18 12:51:14;;;;;;;;;;;0.20;90.70;;;;;;5089043;28;19951;-73
2022/12/18 12:53:41;;;;;;;;;;;0.20;90.60;;;;;;5089234;28;20403;-74
2022/12/18 12:56:08;;;;;;;;;;;0.20;90.70;;;;;;5088602;28;19911;-73
2022/12/18 12:58:38;;;;;;;;;;;0.20;90.80;;;;;;5089274;28;19918;-73
2022/12/18 13:01:03;;;;;;;;;;;0.20;90.80;;;;;;5089033;28;19997;-73
2022/12/18 13:03:48;;;;;;;;;;;0.20;90.70;;;;;;5089398;28;19957;-73
2022/12/18 13:06:23;;;;;;;;;;;0.30;90.70;;;;;;5089148;28;19920;-73
2022/12/18 13:08:59;;;;;;;;;;;0.30;90.70;;;;;;5089375;28;19916;-73
2022/12/18 13:14:43;;;;;;;;;;;0.30;90.80;;;;;;5088258;28;20603;-73
2022/12/18 13:17:20;;;;;;;;;;;0.30;90.70;;;;;;5059401;28;19998;-73
2022/12/18 13:19:50;;;;;;;;;;;0.30;90.80;;;;;;5067723;28;19931;-73
2022/12/18 13:22:22;;;;;;;;;;;0.30;90.80;;;;;;5088768;28;20521;-73
2022/12/18 13:24:48;;;;;;;;;;;0.30;90.90;;;;;;5088152;28;19927;-73
2022/12/18 13:27:32;;;;;;;;;;;0.30;90.80;;;;;;5080689;28;19913;-73
2022/12/18 13:29:57;;;;;;;;;;;0.30;90.90;;;;;;5087396;28;19916;-73
2022/12/18 13:32:24;;;;;;;;;;;0.30;90.90;;;;;;5088431;28;20405;-73
2022/12/18 13:35:08;;;;;;;;;;;0.30;90.90;;;;;;5090793;28;19912;-73
2022/12/18 13:37:41;;;;;;;;;;;0.30;90.90;;;;;;5108621;28;19912;-73
2022/12/18 13:40:30;;;;;;;;;;;0.30;90.90;;;;;;5108479;28;20484;-73
2022/12/18 13:43:14;;;;;;;;;;;0.30;91.00;;;;;;5060559;28;19908;-73
2022/12/18 13:45:44;;;;;;;;;;;0.30;90.90;;;;;;5071621;28;19997;-73
2022/12/18 13:48:21;;;;;;;;;;;0.40;91.00;;;;;;5087564;28;20481;-73
2022/12/18 13:50:58;;;;;;;;;;;0.40;91.00;;;;;;5088193;28;20007;-73
2022/12/18 13:53:29;;;;;;;;;;;0.40;91.00;;;;;;5067966;28;19916;-73
2022/12/18 13:55:55;;;;;;;;;;;0.40;91.00;;;;;;5049250;28;20354;-73
2022/12/18 13:58:20;;;;;;;;;;;0.40;91.00;;;;;;5067823;28;19915;-73
2022/12/18 14:00:46;;;;;;;;;;;0.40;91.00;;;;;;5075725;28;19923;-73
2022/12/18 14:03:17;;;;;;;;;;;0.30;91.00;;;;;;5088233;28;19916;-73
2022/12/18 14:05:44;;;;;;;;;;;0.40;91.00;;;;;;5083404;28;20044;-73
2022/12/18 14:08:13;;;;;;;;;;;0.40;91.10;;;;;;5083342;28;19919;-73
2022/12/18 14:10:43;;;;;;;;;;;0.40;91.00;;;;;;5087176;28;19912;-73
2022/12/18 14:13:10;;;;;;;;;;;0.40;91.00;;;;;;5086720;28;19972;-73
2022/12/18 14:15:38;;;;;;;;;;;0.40;91.10;;;;;;5087229;28;19923;-73
2022/12/18 14:18:16;;;;;;;;;;;0.40;91.10;;;;;;5086645;28;19912;-73
2022/12/18 14:20:43;;;;;;;;;;;0.40;91.10;;;;;;5086606;28;19916;-73
2022/12/18 14:23:25;;;;;;;;;;;0.40;91.10;;;;;;5068700;28;19943;-73
2022/12/18 14:25:51;;;;;;;;;;;0.40;91.20;;;;;;5086795;28;19916;-73
2022/12/18 14:28:17;;;;;;;;;;;0.40;91.10;;;;;;5079773;28;19966;-73
2022/12/18 14:30:44;;;;;;;;;;;0.40;91.10;;;;;;5086196;28;19916;-73
2022/12/18 14:33:11;;;;;;;;;;;0.40;91.10;;;;;;5086839;28;19912;-73